Time;durP1;ratioP1;P1;durP2;ratioP2;P2;SDS_P1;SDS_P2;PMS_P1;PMS_P2;Temp;Humidity;BMP_temperature;BMP_pressure;BME280_temperature;BME280_humidity;BME280_pressure;Samples;Min_cycle;Max_cycle;Signal;HPM_P1;HPM_P2
2022/01/23 00:00:48;;;;;;;;;6.00;6.00;18.00;99.90;;;;;;5010006;28;10509;-47
2022/01/23 00:03:20;;;;;;;;;5.00;5.00;18.00;99.90;;;;;;5018361;28;10616;-45
2022/01/23 00:05:53;;;;;;;;;6.50;6.50;18.00;99.90;;;;;;5017843;28;11145;-44
2022/01/23 00:08:24;;;;;;;;;4.75;4.75;18.00;99.90;;;;;;5014277;28;10635;-49
2022/01/23 00:10:56;;;;;;;;;10.25;10.25;17.90;99.90;;;;;;5015895;28;11604;-46
2022/01/23 00:13:34;;;;;;;;;8.25;8.25;18.00;99.90;;;;;;5015927;28;10498;-48
2022/01/23 00:18:55;;;;;;;;;14.25;14.25;17.90;99.90;;;;;;5014449;28;10971;-47
2022/01/23 00:21:26;;;;;;;;;16.00;16.00;17.90;99.90;;;;;;5015837;28;10884;-44
2022/01/23 00:32:09;;;;;;;;;18.00;18.00;17.90;99.90;;;;;;5012724;28;10839;-49
2022/01/23 00:34:39;;;;;;;;;18.50;18.50;17.80;99.90;;;;;;5020417;28;11044;-46
2022/01/23 00:37:10;;;;;;;;;15.75;15.75;17.80;99.90;;;;;;5004064;28;10965;-48
2022/01/23 00:39:43;;;;;;;;;17.50;17.50;17.80;99.90;;;;;;5003025;28;11084;-49
2022/01/23 00:42:17;;;;;;;;;14.25;14.25;17.80;99.90;;;;;;5001606;28;10976;-44
2022/01/23 00:44:55;;;;;;;;;10.50;10.50;17.80;99.90;;;;;;5013704;28;11042;-47
2022/01/23 00:47:25;;;;;;;;;8.25;8.25;17.80;99.90;;;;;;5018765;28;10986;-48
2022/01/23 00:49:56;;;;;;;;;6.50;6.50;17.80;99.90;;;;;;5016481;28;10843;-43
2022/01/23 00:52:26;;;;;;;;;6.50;6.50;17.80;99.90;;;;;;4999729;28;10758;-48
2022/01/23 00:55:00;;;;;;;;;8.75;8.75;17.80;99.90;;;;;;5018414;28;10705;-47
2022/01/23 00:57:33;;;;;;;;;7.50;7.50;17.70;99.90;;;;;;5014033;28;10495;-46
2022/01/23 01:00:06;;;;;;;;;7.50;7.50;17.70;99.90;;;;;;5017764;28;10269;-46
2022/01/23 01:02:38;;;;;;;;;8.00;8.00;17.70;99.90;;;;;;4999211;28;10132;-49
2022/01/23 01:05:17;;;;;;;;;4.75;4.75;17.70;99.90;;;;;;5017296;28;10454;-50
2022/01/23 01:07:48;;;;;;;;;6.00;6.00;17.70;99.90;;;;;;5000723;28;10371;-49
2022/01/23 01:10:26;;;;;;;;;7.75;7.75;17.70;99.90;;;;;;5002640;28;10461;-48
2022/01/23 01:13:01;;;;;;;;;9.00;9.00;17.70;99.90;;;;;;5018664;28;10575;-53
2022/01/23 01:15:41;;;;;;;;;8.25;8.25;17.70;99.90;;;;;;5018216;28;10423;-53
2022/01/23 01:32:38;;;;;;;;;5.50;5.50;17.50;99.90;;;;;;5001163;28;12021;-49
2022/01/23 01:35:23;;;;;;;;;5.50;5.50;17.50;99.90;;;;;;4996760;28;11433;-47
2022/01/23 01:37:55;;;;;;;;;5.75;5.75;17.50;99.90;;;;;;4996968;28;11446;-53
2022/01/23 01:40:27;;;;;;;;;5.75;5.75;17.40;99.90;;;;;;5012335;28;11406;-51
2022/01/23 01:42:58;;;;;;;;;6.25;6.25;17.40;99.90;;;;;;4993037;28;12241;-45
2022/01/23 01:45:31;;;;;;;;;8.75;7.25;17.40;99.90;;;;;;5001297;28;11452;-46
2022/01/23 01:48:15;;;;;;;;;19.25;19.25;17.40;99.90;;;;;;5014455;28;11592;-43
2022/01/23 01:50:47;;;;;;;;;29.75;29.00;17.30;99.90;;;;;;4999816;28;11548;-46
2022/01/23 01:53:18;;;;;;;;;29.00;28.50;17.30;99.90;;;;;;5015324;28;11627;-48
2022/01/23 01:55:55;;;;;;;;;38.50;35.00;17.30;99.90;;;;;;5015141;28;11525;-45
2022/01/23 02:10:10;;;;;;;;;49.33;42.33;17.20;99.90;;;;;;4980594;28;11618;-46
2022/01/23 02:55:21;;;;;;;;;10.00;10.00;16.70;99.90;;;;;;4994087;28;11279;-46
2022/01/23 02:57:57;;;;;;;;;11.00;10.75;16.70;99.90;;;;;;5000332;28;11263;-52
2022/01/23 03:00:36;;;;;;;;;12.00;12.00;16.70;99.90;;;;;;4992501;28;11848;-48
2022/01/23 03:03:30;;;;;;;;;12.00;11.50;16.60;99.90;;;;;;5014680;28;11968;-52
2022/01/23 03:09:10;;;;;;;;;9.00;9.00;16.60;99.90;;;;;;5004340;28;11129;-45
2022/01/23 03:30:50;;;;;;;;;14.50;14.50;16.30;99.90;;;;;;5008631;28;11556;-53
2022/01/23 03:33:20;;;;;;;;;14.25;13.75;16.20;99.90;;;;;;5013503;28;12224;-46
2022/01/23 03:35:50;;;;;;;;;15.50;15.50;16.20;99.90;;;;;;5011821;28;12058;-45
2022/01/23 03:38:21;;;;;;;;;13.75;13.75;16.20;99.90;;;;;;5018663;28;11477;-46
2022/01/23 03:40:52;;;;;;;;;13.75;13.75;16.10;99.90;;;;;;5000176;28;11477;-47
2022/01/23 03:43:30;;;;;;;;;14.75;14.75;16.10;99.90;;;;;;5015957;28;11641;-52
2022/01/23 03:49:44;;;;;;;;;18.50;18.50;16.00;99.90;;;;;;5013347;28;11508;-48
2022/01/23 03:51:50;;;;;;;;;14.00;14.00;16.00;99.90;;;;;;4985917;28;11521;-52
2022/01/23 03:54:20;;;;;;;;;12.00;12.00;16.00;99.90;;;;;;5011706;28;11527;-48
2022/01/23 03:56:50;;;;;;;;;14.75;14.75;16.00;99.90;;;;;;5004743;28;11501;-51
2022/01/23 03:59:21;;;;;;;;;16.25;16.25;15.90;99.90;;;;;;5012886;28;11785;-51
2022/01/23 04:01:53;;;;;;;;;13.50;13.50;15.90;99.90;;;;;;5010872;28;11489;-47
2022/01/23 04:04:39;;;;;;;;;14.75;14.75;15.90;99.90;;;;;;5001341;28;11546;-46
2022/01/23 04:07:21;;;;;;;;;15.00;15.00;15.80;99.90;;;;;;4991144;28;12344;-47
2022/01/23 04:09:52;;;;;;;;;11.50;11.50;15.80;99.90;;;;;;4987165;28;11479;-45
2022/01/23 04:12:43;;;;;;;;;10.75;10.75;15.70;99.90;;;;;;5010846;28;11516;-46
2022/01/23 04:20:43;;;;;;;;;17.00;17.00;15.60;99.90;;;;;;5009528;28;12346;-46
2022/01/23 04:46:02;;;;;;;;;17.00;17.00;15.30;99.90;;;;;;4991245;28;11594;-54
2022/01/23 04:48:56;;;;;;;;;19.50;19.50;15.30;99.90;;;;;;4991706;28;11992;-46
2022/01/23 04:59:56;;;;;;;;;17.00;17.00;15.20;99.90;;;;;;4996170;28;11606;-47
2022/01/23 05:05:59;;;;;;;;;23.00;18.75;15.10;99.90;;;;;;4976942;28;11603;-48
2022/01/23 05:08:48;;;;;;;;;21.75;21.75;15.10;99.90;;;;;;4995594;28;11605;-53
2022/01/23 05:11:37;;;;;;;;;25.75;25.00;15.00;99.90;;;;;;4997252;28;12386;-46
2022/01/23 05:14:13;;;;;;;;;23.25;23.25;15.00;99.90;;;;;;4993839;28;11621;-46
2022/01/23 05:16:43;;;;;;;;;21.75;21.75;15.00;99.90;;;;;;4994401;28;12491;-47
2022/01/23 05:19:16;;;;;;;;;22.50;22.50;14.90;99.90;;;;;;4994399;28;11627;-44
2022/01/23 05:22:19;;;;;;;;;26.25;24.75;14.90;99.90;;;;;;4989002;28;11618;-44
2022/01/23 05:24:40;;;;;;;;;26.50;26.50;14.90;99.90;;;;;;5010705;28;11613;-44
2022/01/23 05:27:15;;;;;;;;;23.00;23.00;14.80;99.90;;;;;;4997077;28;11585;-52
2022/01/23 05:29:45;;;;;;;;;23.50;23.50;14.80;99.90;;;;;;5010612;28;12336;-48
2022/01/23 05:32:17;;;;;;;;;22.00;22.00;14.70;99.90;;;;;;4997227;28;11608;-50
2022/01/23 05:34:49;;;;;;;;;20.00;19.50;14.70;99.90;;;;;;4994147;28;11621;-50
2022/01/23 05:37:26;;;;;;;;;20.25;20.25;14.70;99.90;;;;;;4993453;28;11643;-43
2022/01/23 05:39:58;;;;;;;;;20.75;19.50;14.70;99.90;;;;;;4989555;28;11731;-43
2022/01/23 05:42:29;;;;;;;;;19.75;19.75;14.60;99.90;;;;;;4994572;28;11751;-49
2022/01/23 05:45:00;;;;;;;;;21.50;21.50;14.60;99.90;;;;;;5006544;28;11613;-49
2022/01/23 05:47:54;;;;;;;;;14.00;14.00;14.50;99.90;;;;;;5005659;28;11590;-50
2022/01/23 05:50:43;;;;;;;;;20.50;20.50;14.50;99.90;;;;;;4979673;28;11571;-52
2022/01/23 05:53:31;;;;;;;;;16.50;16.50;14.40;99.90;;;;;;5004009;28;11559;-53
2022/01/23 05:56:19;;;;;;;;;19.25;19.25;14.40;99.90;;;;;;4999990;28;11781;-49
2022/01/23 05:58:59;;;;;;;;;20.75;20.75;14.40;99.90;;;;;;5005731;28;12357;-52
2022/01/23 06:01:46;;;;;;;;;19.00;19.00;14.40;99.90;;;;;;4992598;28;11682;-51
2022/01/23 06:04:24;;;;;;;;;18.00;18.00;14.30;99.90;;;;;;5007628;28;12108;-51
2022/01/23 06:07:03;;;;;;;;;23.25;22.50;14.30;99.90;;;;;;4990955;28;11636;-46
2022/01/23 06:09:40;;;;;;;;;24.00;23.00;14.30;99.90;;;;;;4998500;28;11725;-43
2022/01/23 06:12:12;;;;;;;;;16.75;16.75;14.20;99.90;;;;;;4994129;28;11643;-45
2022/01/23 06:14:44;;;;;;;;;22.00;22.00;14.10;99.90;;;;;;4991827;28;12283;-46
2022/01/23 06:17:14;;;;;;;;;15.50;13.75;14.10;99.90;;;;;;4996413;28;11600;-50
2022/01/23 06:20:03;;;;;;;;;18.25;18.25;14.10;99.90;;;;;;5001427;28;11586;-52
2022/01/23 06:23:00;;;;;;;;;16.50;16.50;14.10;99.90;;;;;;5001884;28;11587;-50
2022/01/23 06:25:50;;;;;;;;;18.00;18.00;14.00;99.90;;;;;;4995223;28;11581;-46
2022/01/23 06:28:48;;;;;;;;;20.50;20.50;14.00;99.90;;;;;;4999076;28;11556;-48
2022/01/23 06:31:20;;;;;;;;;22.75;20.75;13.90;99.90;;;;;;4995456;28;11642;-46
2022/01/23 06:33:49;;;;;;;;;15.25;14.50;13.90;99.90;;;;;;4994915;28;11613;-47
2022/01/23 06:36:21;;;;;;;;;15.50;15.50;13.80;99.90;;;;;;4998473;28;12217;-49
2022/01/23 06:38:52;;;;;;;;;18.75;17.25;13.80;99.90;;;;;;4991436;28;11592;-52
2022/01/23 06:41:24;;;;;;;;;14.75;14.75;13.80;99.90;;;;;;5014025;28;12337;-48
2022/01/23 06:44:11;;;;;;;;;17.75;17.75;13.70;99.90;;;;;;4994712;28;11658;-48
2022/01/23 06:46:45;;;;;;;;;15.75;15.75;13.70;99.90;;;;;;4997207;28;11596;-49
2022/01/23 06:49:16;;;;;;;;;14.50;14.50;13.70;99.90;;;;;;4998173;28;11588;-48
2022/01/23 06:51:48;;;;;;;;;15.75;15.75;13.60;99.90;;;;;;5007867;28;11614;-52
2022/01/23 06:54:21;;;;;;;;;16.75;16.75;13.60;99.90;;;;;;5008115;28;11659;-54
2022/01/23 06:56:53;;;;;;;;;6.25;6.25;13.50;99.90;;;;;;5005109;28;11598;-54
2022/01/23 06:59:24;;;;;;;;;20.00;20.00;13.50;99.90;;;;;;4994233;28;11995;-49
2022/01/23 07:02:05;;;;;;;;;16.75;16.75;13.40;99.90;;;;;;4994563;28;11624;-49
2022/01/23 07:05:04;;;;;;;;;14.25;14.25;13.40;99.90;;;;;;4989631;28;11595;-46
2022/01/23 07:07:49;;;;;;;;;12.00;12.00;13.40;99.90;;;;;;4995401;28;11597;-47
2022/01/23 07:10:37;;;;;;;;;16.00;16.00;13.40;99.90;;;;;;5001593;28;11555;-46
2022/01/23 07:13:31;;;;;;;;;17.75;17.75;13.40;99.90;;;;;;4994260;28;12325;-54
2022/01/23 07:16:10;;;;;;;;;12.00;12.00;13.30;99.90;;;;;;4992921;28;11591;-50
2022/01/23 07:19:15;;;;;;;;;15.50;15.50;13.30;99.90;;;;;;4993946;28;11609;-48
2022/01/23 07:21:50;;;;;;;;;17.25;17.25;13.30;99.90;;;;;;4991162;28;11602;-52
2022/01/23 07:24:23;;;;;;;;;15.00;15.00;13.20;99.90;;;;;;4989808;28;11706;-50
2022/01/23 07:26:56;;;;;;;;;12.75;12.75;13.20;99.90;;;;;;4984985;28;11649;-49
2022/01/23 07:29:28;;;;;;;;;16.75;16.75;13.20;99.90;;;;;;4997636;28;11607;-50
2022/01/23 07:32:06;;;;;;;;;15.25;15.00;13.10;99.90;;;;;;4991495;28;11598;-54
2022/01/23 07:34:37;;;;;;;;;10.75;10.75;13.10;99.90;;;;;;4999329;28;11612;-52
2022/01/23 07:37:12;;;;;;;;;10.25;10.25;13.10;99.90;;;;;;4994977;28;11560;-48
2022/01/23 07:39:55;;;;;;;;;10.50;10.50;13.10;99.90;;;;;;4996054;28;11577;-49
2022/01/23 07:42:30;;;;;;;;;13.75;13.75;13.00;99.90;;;;;;4979097;28;11584;-46
2022/01/23 07:45:06;;;;;;;;;16.00;16.00;13.00;99.90;;;;;;4999051;28;11591;-50
2022/01/23 07:48:15;;;;;;;;;17.25;17.25;13.00;99.90;;;;;;4955763;28;11632;-45
2022/01/23 07:51:01;;;;;;;;;17.00;17.00;13.00;99.90;;;;;;4954489;28;11641;-47
2022/01/23 07:53:50;;;;;;;;;15.25;15.25;12.90;99.90;;;;;;4990044;28;11750;-47
2022/01/23 07:56:46;;;;;;;;;18.25;18.25;12.90;99.90;;;;;;4997389;28;11573;-45
2022/01/23 07:59:35;;;;;;;;;18.00;18.00;12.90;99.90;;;;;;5000631;28;11564;-46
2022/01/23 08:02:30;;;;;;;;;19.75;19.25;12.90;99.90;;;;;;4995192;28;11596;-46
2022/01/23 08:05:19;;;;;;;;;20.25;20.25;12.80;99.90;;;;;;5001183;28;11589;-49
2022/01/23 08:08:05;;;;;;;;;23.25;22.00;12.80;99.90;;;;;;4994770;28;11616;-45
2022/01/23 08:10:48;;;;;;;;;20.00;20.00;12.80;99.90;;;;;;5015048;28;11586;-48
2022/01/23 08:13:19;;;;;;;;;19.75;19.75;12.80;99.90;;;;;;4993380;28;11585;-48
2022/01/23 08:15:49;;;;;;;;;19.00;19.00;12.80;99.90;;;;;;5000094;28;11605;-49
2022/01/23 08:18:21;;;;;;;;;25.50;25.50;12.70;99.90;;;;;;5014402;28;11530;-49
2022/01/23 08:20:52;;;;;;;;;21.75;21.75;12.70;99.90;;;;;;5016102;28;11692;-46
2022/01/23 08:23:22;;;;;;;;;17.75;17.75;12.70;99.90;;;;;;5015403;28;11731;-45
2022/01/23 08:25:54;;;;;;;;;23.75;22.50;12.60;99.90;;;;;;5017857;28;11543;-49
2022/01/23 08:28:24;;;;;;;;;24.25;24.25;12.60;99.90;;;;;;5014965;28;11548;-47
2022/01/23 08:30:56;;;;;;;;;26.25;26.25;12.60;99.90;;;;;;5015387;28;11545;-46
2022/01/23 08:33:27;;;;;;;;;24.25;24.25;12.60;99.90;;;;;;5013062;28;11554;-45
2022/01/23 08:35:57;;;;;;;;;25.50;25.50;12.60;99.90;;;;;;5010908;28;11573;-45
2022/01/23 08:38:27;;;;;;;;;24.25;24.25;12.50;99.90;;;;;;5019039;28;11559;-46
2022/01/23 08:43:42;;;;;;;;;14.00;14.00;12.50;99.90;;;;;;5019600;28;11557;-49
2022/01/23 08:46:14;;;;;;;;;5.00;5.00;12.40;99.90;;;;;;5011093;28;11550;-48
2022/01/23 08:48:46;;;;;;;;;7.75;6.75;12.40;99.90;;;;;;5019726;28;11537;-46
2022/01/23 08:51:16;;;;;;;;;6.75;6.75;12.40;99.90;;;;;;5019736;28;11659;-51
2022/01/23 08:53:46;;;;;;;;;6.00;6.00;12.40;99.90;;;;;;5014440;28;12306;-49
2022/01/23 08:56:17;;;;;;;;;6.25;6.25;12.30;99.90;;;;;;5015413;28;12309;-47
2022/01/23 08:58:48;;;;;;;;;5.50;5.50;12.20;99.90;;;;;;4999474;28;12346;-49
2022/01/23 09:01:20;;;;;;;;;4.25;4.25;12.10;99.90;;;;;;5018332;28;11490;-49
2022/01/23 09:03:50;;;;;;;;;9.50;9.50;12.20;99.90;;;;;;5011752;28;11545;-47
2022/01/23 09:06:21;;;;;;;;;8.75;8.75;12.20;99.90;;;;;;5019849;28;11506;-48
2022/01/23 09:08:53;;;;;;;;;9.00;9.00;12.00;99.90;;;;;;5016979;28;11506;-45
2022/01/23 09:11:27;;;;;;;;;8.75;8.75;12.00;99.90;;;;;;5017916;28;11514;-49
2022/01/23 09:14:07;;;;;;;;;10.25;10.25;11.90;99.90;;;;;;5020939;28;11495;-49
2022/01/23 09:16:45;;;;;;;;;7.25;7.25;11.90;99.90;;;;;;5018201;28;11568;-46
2022/01/23 09:19:20;;;;;;;;;12.25;12.25;11.90;99.90;;;;;;5020603;28;13411;-46
2022/01/23 09:21:51;;;;;;;;;23.50;23.50;11.90;99.90;;;;;;5018489;28;11537;-47
2022/01/23 09:24:24;;;;;;;;;28.00;28.00;12.00;99.90;;;;;;5013814;28;11552;-46
2022/01/23 09:27:02;;;;;;;;;26.00;26.00;11.90;99.90;;;;;;5018833;28;11573;-46
2022/01/23 09:29:41;;;;;;;;;13.75;13.75;11.90;99.90;;;;;;5012068;28;11589;-49
2022/01/23 09:32:14;;;;;;;;;9.00;9.00;11.90;99.90;;;;;;5014525;28;11614;-48
2022/01/23 09:34:45;;;;;;;;;9.25;8.75;11.90;99.90;;;;;;5015194;28;11542;-50
2022/01/23 09:37:18;;;;;;;;;11.75;11.75;11.90;99.90;;;;;;5019872;28;11669;-48
2022/01/23 09:39:51;;;;;;;;;11.50;11.50;11.80;99.90;;;;;;5016732;28;11511;-48
2022/01/23 09:42:28;;;;;;;;;10.50;8.75;11.80;99.90;;;;;;5013971;28;11643;-46
2022/01/23 09:45:09;;;;;;;;;8.25;8.25;11.70;99.90;;;;;;5016537;28;11572;-47
2022/01/23 09:47:45;;;;;;;;;10.00;10.00;11.70;99.90;;;;;;5014160;28;11497;-46
2022/01/23 09:50:16;;;;;;;;;6.00;6.00;11.70;99.90;;;;;;5022426;28;11493;-47
2022/01/23 09:52:47;;;;;;;;;10.25;9.50;11.60;99.90;;;;;;5015147;28;11489;-47
2022/01/23 09:55:17;;;;;;;;;11.00;10.00;11.60;99.90;;;;;;5015724;28;11536;-47
2022/01/23 09:57:50;;;;;;;;;6.75;6.75;11.50;99.90;;;;;;5018592;28;11548;-48
2022/01/23 10:00:26;;;;;;;;;6.00;6.00;11.50;99.90;;;;;;5004559;28;11492;-48
2022/01/23 10:02:57;;;;;;;;;10.00;10.00;11.50;99.90;;;;;;5016735;28;11473;-50
2022/01/23 10:05:29;;;;;;;;;11.00;11.00;11.50;99.90;;;;;;5018349;28;11477;-48
2022/01/23 10:08:00;;;;;;;;;11.00;11.00;11.40;99.90;;;;;;5020431;28;11486;-49
2022/01/23 10:10:36;;;;;;;;;8.25;8.25;11.40;99.90;;;;;;5015172;28;11702;-45
2022/01/23 10:13:10;;;;;;;;;7.75;7.75;11.40;99.90;;;;;;5015967;28;11619;-45
2022/01/23 10:15:45;;;;;;;;;9.75;9.75;11.30;99.90;;;;;;5014663;28;12637;-46
2022/01/23 10:18:18;;;;;;;;;10.25;9.00;11.30;99.90;;;;;;5016942;28;11581;-47
2022/01/23 10:20:48;;;;;;;;;9.50;9.50;11.30;99.90;;;;;;4997574;28;11527;-46
2022/01/23 10:23:19;;;;;;;;;8.50;8.50;11.30;99.90;;;;;;5016635;28;12303;-45
2022/01/23 10:25:51;;;;;;;;;12.00;12.00;11.30;99.90;;;;;;5015045;28;11539;-47
2022/01/23 10:28:28;;;;;;;;;10.50;10.50;11.30;99.90;;;;;;5007581;28;11528;-46
2022/01/23 10:31:02;;;;;;;;;8.75;8.75;11.20;99.90;;;;;;5018454;28;12408;-45
2022/01/23 10:33:35;;;;;;;;;9.00;9.00;11.20;99.90;;;;;;5009317;28;11648;-46
2022/01/23 10:36:12;;;;;;;;;7.25;7.25;11.20;99.90;;;;;;5017112;28;11521;-47
2022/01/23 10:38:59;;;;;;;;;6.75;6.75;11.20;99.90;;;;;;5016995;28;11476;-48
2022/01/23 10:47:44;;;;;;;;;12.75;12.75;11.10;99.90;;;;;;5016700;28;12305;-46
2022/01/23 10:50:16;;;;;;;;;9.75;9.75;11.10;99.90;;;;;;5017014;28;11541;-46
2022/01/23 10:52:53;;;;;;;;;11.50;11.50;11.00;99.90;;;;;;5018968;28;12479;-47
2022/01/23 10:55:34;;;;;;;;;4.25;4.25;11.00;99.90;;;;;;5017907;28;12230;-48
2022/01/23 10:58:17;;;;;;;;;12.50;11.50;11.00;99.90;;;;;;5018981;28;12037;-48
2022/01/23 11:00:50;;;;;;;;;10.75;10.75;11.00;99.90;;;;;;5004257;28;12091;-50
2022/01/23 11:03:24;;;;;;;;;11.25;11.25;11.00;99.90;;;;;;5015800;28;11540;-47
2022/01/23 11:05:54;;;;;;;;;11.75;11.75;10.90;99.90;;;;;;5015660;28;11497;-49
2022/01/23 11:08:30;;;;;;;;;14.50;14.50;10.90;99.90;;;;;;5016425;28;11525;-51
2022/01/23 11:11:05;;;;;;;;;12.75;12.75;10.80;99.90;;;;;;5018776;28;11578;-50
2022/01/23 11:19:39;;;;;;;;;13.25;13.25;10.80;99.90;;;;;;5014700;28;11504;-49
2022/01/23 11:22:38;;;;;;;;;12.50;12.50;10.70;99.90;;;;;;5015065;28;11529;-50
2022/01/23 11:25:10;;;;;;;;;8.50;8.50;10.70;99.90;;;;;;5019075;28;11961;-47
2022/01/23 11:27:44;;;;;;;;;11.00;9.75;10.70;99.90;;;;;;5017138;28;12257;-52
2022/01/23 11:30:17;;;;;;;;;11.50;10.00;10.70;99.90;;;;;;5016540;28;11457;-47
2022/01/23 11:32:49;;;;;;;;;8.75;8.75;10.60;99.90;;;;;;5018957;28;11497;-49
2022/01/23 11:35:24;;;;;;;;;12.25;10.75;10.60;99.90;;;;;;5011900;28;11536;-47
2022/01/23 11:37:55;;;;;;;;;11.75;10.50;10.50;99.90;;;;;;4994745;28;11540;-49
2022/01/23 11:50:40;;;;;;;;;8.25;8.25;10.50;99.90;;;;;;5013994;28;11672;-48
2022/01/23 11:55:34;;;;;;;;;11.00;11.00;10.20;99.90;;;;;;5013243;28;11549;-51
2022/01/23 11:58:05;;;;;;;;;10.00;9.00;10.20;99.90;;;;;;5018951;28;11506;-45
2022/01/23 12:00:40;;;;;;;;;8.75;8.75;10.20;99.90;;;;;;5018900;28;11529;-46
2022/01/23 12:03:14;;;;;;;;;10.00;10.00;10.20;99.90;;;;;;5018872;28;11611;-45
2022/01/23 12:05:47;;;;;;;;;8.75;8.75;10.30;99.90;;;;;;5016369;28;11533;-49
2022/01/23 12:08:35;;;;;;;;;11.50;11.50;10.30;99.90;;;;;;5000077;28;11509;-47
2022/01/23 12:11:35;;;;;;;;;6.25;6.25;10.30;99.90;;;;;;5018361;28;11563;-50
2022/01/23 12:17:10;;;;;;;;;6.00;6.00;10.10;99.90;;;;;;5020173;28;11574;-46
2022/01/23 12:19:45;;;;;;;;;8.00;8.00;10.10;99.90;;;;;;5024473;28;11478;-47
2022/01/23 12:22:26;;;;;;;;;6.00;6.00;10.10;99.90;;;;;;5020214;28;12564;-46
2022/01/23 12:25:05;;;;;;;;;10.00;10.00;10.10;99.90;;;;;;5022999;28;11496;-49
2022/01/23 12:27:36;;;;;;;;;9.50;8.00;10.10;99.90;;;;;;5024095;28;11708;-47
2022/01/23 12:30:19;;;;;;;;;9.50;9.50;10.10;99.90;;;;;;5024660;28;11623;-45
2022/01/23 12:33:09;;;;;;;;;7.50;7.50;10.20;99.90;;;;;;5018614;28;11516;-46
2022/01/23 12:35:46;;;;;;;;;7.00;7.00;10.10;99.90;;;;;;5021856;28;11621;-48
2022/01/23 12:38:17;;;;;;;;;5.25;5.25;10.10;99.90;;;;;;5027387;28;11467;-50
2022/01/23 12:40:49;;;;;;;;;7.75;7.75;10.10;99.90;;;;;;5019725;28;11604;-47
2022/01/23 12:43:25;;;;;;;;;10.00;9.00;10.10;99.90;;;;;;5021591;28;11541;-48
2022/01/23 12:46:10;;;;;;;;;6.75;5.00;10.10;99.90;;;;;;5022300;28;11662;-48
2022/01/23 12:48:43;;;;;;;;;9.00;9.00;10.10;99.90;;;;;;5019075;28;11496;-49
2022/01/23 12:51:16;;;;;;;;;9.25;9.25;10.10;99.90;;;;;;5023656;28;11506;-48
2022/01/23 12:53:48;;;;;;;;;6.50;6.50;10.10;99.90;;;;;;5022022;28;11489;-47
2022/01/23 12:56:40;;;;;;;;;9.00;9.00;10.10;99.90;;;;;;5020287;28;11511;-48
2022/01/23 12:59:24;;;;;;;;;7.75;7.75;10.10;99.90;;;;;;5023640;28;11478;-48
2022/01/23 13:02:05;;;;;;;;;7.75;7.75;10.10;99.90;;;;;;5019015;28;11511;-49
2022/01/23 13:04:40;;;;;;;;;9.25;9.25;10.00;99.90;;;;;;5022957;28;11565;-47
2022/01/23 13:07:36;;;;;;;;;10.75;10.75;10.00;99.90;;;;;;5026344;28;11513;-43
2022/01/23 13:18:20;;;;;;;;;11.75;11.00;9.90;99.90;;;;;;5022875;28;11541;-48
2022/01/23 13:32:29;;;;;;;;;8.00;8.00;9.70;99.90;;;;;;5016702;28;11439;-49
2022/01/23 13:35:09;;;;;;;;;9.00;9.00;9.70;99.90;;;;;;5015191;28;11665;-47
2022/01/23 13:37:46;;;;;;;;;9.75;9.75;9.70;99.90;;;;;;5020957;28;11603;-45
2022/01/23 13:40:22;;;;;;;;;9.25;9.25;9.70;99.90;;;;;;5009967;28;11556;-48
2022/01/23 13:58:16;;;;;;;;;10.50;9.00;9.60;99.90;;;;;;5013703;28;12277;-47
2022/01/23 14:00:11;;;;;;;;;8.50;8.50;9.60;99.90;;;;;;5007450;28;11539;-45
2022/01/23 14:02:45;;;;;;;;;7.50;7.50;9.60;99.90;;;;;;5014897;28;11559;-46
2022/01/23 14:05:22;;;;;;;;;10.00;10.00;9.60;99.90;;;;;;5017941;28;11527;-47
2022/01/23 14:08:00;;;;;;;;;8.50;8.50;9.60;99.90;;;;;;5017261;28;12233;-47
2022/01/23 14:10:39;;;;;;;;;10.00;10.00;9.60;99.90;;;;;;5017828;28;11484;-45
2022/01/23 14:13:14;;;;;;;;;12.00;12.00;9.60;99.90;;;;;;5018344;28;11645;-47
2022/01/23 14:15:54;;;;;;;;;7.75;7.75;9.50;99.90;;;;;;5018232;28;11463;-45
2022/01/23 14:18:32;;;;;;;;;10.50;10.50;9.50;99.90;;;;;;5018780;28;11640;-47
2022/01/23 14:21:09;;;;;;;;;8.75;8.75;9.50;99.90;;;;;;5016638;28;11498;-50
2022/01/23 14:23:40;;;;;;;;;9.00;9.00;9.50;99.90;;;;;;5017714;28;11507;-45
2022/01/23 14:26:15;;;;;;;;;9.00;9.00;9.50;99.90;;;;;;5019331;28;11635;-47
2022/01/23 14:28:50;;;;;;;;;8.75;8.50;9.50;99.90;;;;;;5017880;28;11497;-47
2022/01/23 14:31:25;;;;;;;;;11.25;11.25;9.40;99.90;;;;;;5018241;28;11520;-47
2022/01/23 14:34:00;;;;;;;;;9.75;9.75;9.50;99.90;;;;;;5014423;28;11578;-48
2022/01/23 14:36:34;;;;;;;;;6.75;6.75;9.40;99.90;;;;;;5021395;28;11523;-45
2022/01/23 14:39:13;;;;;;;;;10.75;10.75;9.40;99.90;;;;;;5012661;28;11918;-51
2022/01/23 14:41:46;;;;;;;;;9.50;9.50;9.40;99.90;;;;;;5014909;28;11584;-51
2022/01/23 14:44:23;;;;;;;;;9.25;9.25;9.40;99.90;;;;;;5001942;28;11539;-51
2022/01/23 14:46:56;;;;;;;;;13.00;13.00;9.40;99.90;;;;;;5016980;28;12431;-48
2022/01/23 14:49:30;;;;;;;;;5.25;5.25;9.40;99.90;;;;;;5016454;28;11554;-50
2022/01/23 14:52:04;;;;;;;;;14.00;14.00;9.40;99.90;;;;;;5017297;28;11516;-49
2022/01/23 14:54:34;;;;;;;;;14.25;12.50;9.40;99.90;;;;;;5010702;28;12302;-49
2022/01/23 14:57:09;;;;;;;;;14.50;14.50;9.40;99.90;;;;;;5017269;28;11563;-48
2022/01/23 14:59:39;;;;;;;;;10.75;10.75;9.40;99.90;;;;;;5018175;28;11521;-46
2022/01/23 15:02:13;;;;;;;;;14.50;12.50;9.30;99.90;;;;;;5017586;28;11535;-47
2022/01/23 15:04:47;;;;;;;;;15.00;13.25;9.30;99.90;;;;;;5018755;28;11707;-49
2022/01/23 15:07:18;;;;;;;;;10.25;10.25;9.30;99.90;;;;;;5018094;28;11790;-47
2022/01/23 15:09:51;;;;;;;;;12.00;12.00;9.30;99.90;;;;;;5014662;28;11545;-45
2022/01/23 15:12:21;;;;;;;;;14.00;14.00;9.30;99.90;;;;;;4996742;28;11576;-44
2022/01/23 15:14:52;;;;;;;;;14.25;14.25;9.30;99.90;;;;;;5017847;28;11519;-45
2022/01/23 15:17:25;;;;;;;;;18.25;16.00;9.20;99.90;;;;;;5016293;28;11568;-46
2022/01/23 15:19:56;;;;;;;;;10.25;10.25;9.20;99.90;;;;;;5019403;28;11538;-46
2022/01/23 15:22:27;;;;;;;;;9.25;9.25;9.10;99.90;;;;;;5016087;28;11535;-50
2022/01/23 15:24:59;;;;;;;;;17.00;17.00;9.10;99.90;;;;;;5017042;28;12331;-46
2022/01/23 15:27:30;;;;;;;;;13.25;13.25;9.10;99.90;;;;;;5018038;28;11504;-48
2022/01/23 15:30:05;;;;;;;;;15.00;15.00;9.10;99.90;;;;;;5017002;28;11515;-47
2022/01/23 15:32:36;;;;;;;;;14.75;14.75;9.20;99.90;;;;;;5016572;28;11517;-50
2022/01/23 15:35:07;;;;;;;;;16.75;16.75;9.10;99.90;;;;;;5017289;28;11528;-50
2022/01/23 15:37:38;;;;;;;;;11.25;11.25;9.00;99.90;;;;;;5016028;28;11545;-47
2022/01/23 15:40:16;;;;;;;;;15.00;15.00;9.10;99.90;;;;;;5010096;28;11553;-48
2022/01/23 15:42:50;;;;;;;;;14.25;14.25;9.10;99.90;;;;;;5015707;28;11488;-47
2022/01/23 15:45:23;;;;;;;;;12.25;12.25;9.10;99.90;;;;;;5013044;28;11496;-50
2022/01/23 15:47:54;;;;;;;;;11.75;11.75;9.00;99.90;;;;;;5013096;28;11553;-46
2022/01/23 15:50:26;;;;;;;;;13.75;13.75;9.10;99.90;;;;;;5011907;28;11564;-48
2022/01/23 15:52:57;;;;;;;;;10.00;10.00;9.10;99.90;;;;;;5012691;28;11611;-48
2022/01/23 15:55:29;;;;;;;;;14.00;14.00;9.00;99.90;;;;;;5012292;28;11548;-48
2022/01/23 15:58:06;;;;;;;;;16.67;16.67;9.00;99.90;;;;;;5017207;28;11531;-44
2022/01/23 16:00:36;;;;;;;;;15.33;14.33;8.90;99.90;;;;;;5015938;28;11606;-51
2022/01/23 16:03:07;;;;;;;;;16.00;16.00;8.90;99.90;;;;;;5013345;28;11594;-48
2022/01/23 16:05:40;;;;;;;;;12.50;12.50;8.80;99.90;;;;;;5014675;28;11682;-47
2022/01/23 16:08:15;;;;;;;;;12.75;12.00;8.90;99.90;;;;;;5010679;28;11517;-49
2022/01/23 16:10:45;;;;;;;;;17.33;17.33;8.90;99.90;;;;;;5015495;28;11493;-50
2022/01/23 16:13:16;;;;;;;;;13.67;13.00;8.90;99.90;;;;;;5013919;28;11518;-54
2022/01/23 16:15:47;;;;;;;;;10.00;10.00;8.90;99.90;;;;;;5011773;28;11740;-50
2022/01/23 16:18:18;;;;;;;;;15.67;15.67;8.90;99.90;;;;;;5014533;28;11621;-48
2022/01/23 16:20:52;;;;;;;;;10.33;10.33;8.90;99.90;;;;;;5015398;28;8860;-49
2022/01/23 16:23:23;;;;;;;;;17.67;17.67;8.90;99.90;;;;;;5011798;28;11598;-47
2022/01/23 16:26:13;;;;;;;;;15.00;15.00;8.90;99.90;;;;;;5020221;28;11646;-47
2022/01/23 16:28:45;;;;;;;;;19.33;18.00;9.00;99.90;;;;;;5014455;28;11512;-48
2022/01/23 16:31:16;;;;;;;;;17.25;17.25;8.90;99.90;;;;;;5013154;28;11636;-49
2022/01/23 16:33:48;;;;;;;;;11.75;11.75;9.00;99.90;;;;;;5017459;28;11553;-47
2022/01/23 16:36:19;;;;;;;;;14.00;14.00;9.00;99.90;;;;;;5017668;28;11554;-47
2022/01/23 16:38:55;;;;;;;;;15.25;15.25;9.00;99.90;;;;;;5017153;28;11519;-45
2022/01/23 16:41:27;;;;;;;;;16.00;16.00;9.10;99.90;;;;;;5013541;28;11525;-48
2022/01/23 16:43:58;;;;;;;;;13.50;13.50;9.10;99.90;;;;;;5015203;28;11603;-50
2022/01/23 16:46:30;;;;;;;;;12.75;12.75;9.10;99.90;;;;;;5014270;28;11525;-45
2022/01/23 16:49:01;;;;;;;;;14.25;14.25;9.20;99.90;;;;;;5007055;28;11573;-44